sensor_id;sensor_type;location;lat;lon;timestamp;P1;durP1;ratioP1;P2;durP2;ratioP2
69837;SDS011;57135;51.992;4.476;2023-11-21T00:01:48;7.30;;;7.25;;
69837;SDS011;57135;51.992;4.476;2023-11-21T00:35:39;7.54;;;7.47;;
69837;SDS011;57135;51.992;4.476;2023-11-21T00:52:56;7.57;;;7.51;;
69837;SDS011;57135;51.992;4.476;2023-11-21T01:02:51;7.15;;;7.13;;
69837;SDS011;57135;51.992;4.476;2023-11-21T01:06:04;7.63;;;7.48;;
69837;SDS011;57135;51.992;4.476;2023-11-21T01:08:40;6.87;;;6.78;;
69837;SDS011;57135;51.992;4.476;2023-11-21T01:11:26;7.17;;;7.05;;
69837;SDS011;57135;51.992;4.476;2023-11-21T01:14:23;6.94;;;6.82;;
69837;SDS011;57135;51.992;4.476;2023-11-21T01:20:15;6.92;;;6.90;;
69837;SDS011;57135;51.992;4.476;2023-11-21T01:39:58;6.32;;;6.26;;
69837;SDS011;57135;51.992;4.476;2023-11-21T01:53:17;5.89;;;5.88;;
69837;SDS011;57135;51.992;4.476;2023-11-21T02:02:49;5.94;;;5.94;;
69837;SDS011;57135;51.992;4.476;2023-11-21T02:13:04;5.92;;;5.89;;
69837;SDS011;57135;51.992;4.476;2023-11-21T02:15:32;5.67;;;5.66;;
69837;SDS011;57135;51.992;4.476;2023-11-21T02:22:17;6.18;;;6.16;;
69837;SDS011;57135;51.992;4.476;2023-11-21T03:04:39;5.82;;;5.76;;
69837;SDS011;57135;51.992;4.476;2023-11-21T03:10:48;5.18;;;5.14;;
69837;SDS011;57135;51.992;4.476;2023-11-21T03:13:13;5.44;;;5.41;;
69837;SDS011;57135;51.992;4.476;2023-11-21T03:26:13;5.67;;;5.60;;
69837;SDS011;57135;51.992;4.476;2023-11-21T03:28:39;5.57;;;5.54;;
69837;SDS011;57135;51.992;4.476;2023-11-21T03:31:05;5.42;;;5.39;;
69837;SDS011;57135;51.992;4.476;2023-11-21T03:33:31;5.55;;;5.49;;
69837;SDS011;57135;51.992;4.476;2023-11-21T03:35:57;5.45;;;5.31;;
69837;SDS011;57135;51.992;4.476;2023-11-21T03:38:23;5.63;;;5.55;;
69837;SDS011;57135;51.992;4.476;2023-11-21T03:40:48;5.16;;;5.11;;
69837;SDS011;57135;51.992;4.476;2023-11-21T03:43:15;5.28;;;5.28;;
69837;SDS011;57135;51.992;4.476;2023-11-21T03:45:41;5.52;;;5.52;;
69837;SDS011;57135;51.992;4.476;2023-11-21T03:48:07;5.24;;;5.24;;
69837;SDS011;57135;51.992;4.476;2023-11-21T03:50:42;5.46;;;5.46;;
69837;SDS011;57135;51.992;4.476;2023-11-21T03:54:06;5.17;;;5.16;;
69837;SDS011;57135;51.992;4.476;2023-11-21T03:57:12;5.52;;;5.46;;
69837;SDS011;57135;51.992;4.476;2023-11-21T04:09:07;5.33;;;5.33;;
69837;SDS011;57135;51.992;4.476;2023-11-21T04:11:42;5.43;;;5.42;;
69837;SDS011;57135;51.992;4.476;2023-11-21T04:14:18;5.42;;;5.39;;
69837;SDS011;57135;51.992;4.476;2023-11-21T04:17:03;5.70;;;5.69;;
69837;SDS011;57135;51.992;4.476;2023-11-21T04:20:04;5.35;;;5.35;;
69837;SDS011;57135;51.992;4.476;2023-11-21T04:23:22;5.81;;;5.80;;
69837;SDS011;57135;51.992;4.476;2023-11-21T04:29:15;6.03;;;6.02;;
69837;SDS011;57135;51.992;4.476;2023-11-21T04:32:41;6.07;;;6.07;;
69837;SDS011;57135;51.992;4.476;2023-11-21T04:35:09;5.89;;;5.87;;
69837;SDS011;57135;51.992;4.476;2023-11-21T04:38:08;6.10;;;6.10;;
69837;SDS011;57135;51.992;4.476;2023-11-21T04:41:29;6.38;;;6.35;;
69837;SDS011;57135;51.992;4.476;2023-11-21T04:51:56;5.97;;;5.96;;
69837;SDS011;57135;51.992;4.476;2023-11-21T04:54:22;6.05;;;6.02;;
69837;SDS011;57135;51.992;4.476;2023-11-21T05:03:26;5.46;;;5.44;;
69837;SDS011;57135;51.992;4.476;2023-11-21T05:06:32;5.91;;;5.85;;
69837;SDS011;57135;51.992;4.476;2023-11-21T05:09:44;5.19;;;5.19;;
69837;SDS011;57135;51.992;4.476;2023-11-21T05:12:16;4.89;;;4.88;;
69837;SDS011;57135;51.992;4.476;2023-11-21T05:15:34;5.39;;;5.39;;
69837;SDS011;57135;51.992;4.476;2023-11-21T05:18:00;5.31;;;5.29;;
69837;SDS011;57135;51.992;4.476;2023-11-21T05:20:28;5.06;;;5.02;;
69837;SDS011;57135;51.992;4.476;2023-11-21T05:23:47;4.99;;;4.99;;
69837;SDS011;57135;51.992;4.476;2023-11-21T05:29:38;4.56;;;4.55;;
69837;SDS011;57135;51.992;4.476;2023-11-21T05:32:03;4.93;;;4.91;;
69837;SDS011;57135;51.992;4.476;2023-11-21T05:34:29;4.72;;;4.72;;
69837;SDS011;57135;51.992;4.476;2023-11-21T05:36:54;4.54;;;4.54;;
69837;SDS011;57135;51.992;4.476;2023-11-21T05:39:20;4.74;;;4.73;;
69837;SDS011;57135;51.992;4.476;2023-11-21T05:41:55;4.44;;;4.44;;
69837;SDS011;57135;51.992;4.476;2023-11-21T05:45:25;4.12;;;4.11;;
69837;SDS011;57135;51.992;4.476;2023-11-21T06:05:23;3.49;;;3.49;;
69837;SDS011;57135;51.992;4.476;2023-11-21T06:08:42;3.37;;;3.34;;
69837;SDS011;57135;51.992;4.476;2023-11-21T06:18:01;2.81;;;2.78;;
69837;SDS011;57135;51.992;4.476;2023-11-21T06:21:08;2.87;;;2.85;;
69837;SDS011;57135;51.992;4.476;2023-11-21T06:23:37;2.76;;;2.75;;
69837;SDS011;57135;51.992;4.476;2023-11-21T06:26:45;2.44;;;2.44;;
69837;SDS011;57135;51.992;4.476;2023-11-21T06:29:48;2.86;;;2.83;;
69837;SDS011;57135;51.992;4.476;2023-11-21T06:39:37;2.47;;;2.47;;
69837;SDS011;57135;51.992;4.476;2023-11-21T06:46:39;2.57;;;2.56;;
69837;SDS011;57135;51.992;4.476;2023-11-21T06:50:01;2.58;;;2.57;;
69837;SDS011;57135;51.992;4.476;2023-11-21T06:52:27;2.61;;;2.60;;
69837;SDS011;57135;51.992;4.476;2023-11-21T06:54:52;2.80;;;2.78;;
69837;SDS011;57135;51.992;4.476;2023-11-21T07:04:26;2.68;;;2.63;;
69837;SDS011;57135;51.992;4.476;2023-11-21T07:06:53;2.26;;;2.22;;
69837;SDS011;57135;51.992;4.476;2023-11-21T07:09:18;2.75;;;2.71;;
69837;SDS011;57135;51.992;4.476;2023-11-21T07:11:47;2.60;;;2.54;;
69837;SDS011;57135;51.992;4.476;2023-11-21T07:14:15;2.61;;;2.51;;
69837;SDS011;57135;51.992;4.476;2023-11-21T07:16:42;2.29;;;2.24;;
69837;SDS011;57135;51.992;4.476;2023-11-21T07:19:07;2.18;;;2.14;;
69837;SDS011;57135;51.992;4.476;2023-11-21T07:24:56;1.97;;;1.95;;
69837;SDS011;57135;51.992;4.476;2023-11-21T07:27:22;2.13;;;2.12;;
69837;SDS011;57135;51.992;4.476;2023-11-21T07:29:50;2.38;;;2.34;;
69837;SDS011;57135;51.992;4.476;2023-11-21T07:38:01;2.46;;;2.36;;
69837;SDS011;57135;51.992;4.476;2023-11-21T07:40:26;2.52;;;2.41;;
69837;SDS011;57135;51.992;4.476;2023-11-21T07:42:55;2.27;;;2.16;;
69837;SDS011;57135;51.992;4.476;2023-11-21T07:45:22;2.40;;;2.25;;
69837;SDS011;57135;51.992;4.476;2023-11-21T07:48:06;2.25;;;2.07;;
69837;SDS011;57135;51.992;4.476;2023-11-21T07:50:34;2.21;;;2.03;;
69837;SDS011;57135;51.992;4.476;2023-11-21T07:53:37;2.13;;;1.98;;
69837;SDS011;57135;51.992;4.476;2023-11-21T07:56:10;2.55;;;2.38;;
69837;SDS011;57135;51.992;4.476;2023-11-21T07:59:40;2.41;;;2.31;;
69837;SDS011;57135;51.992;4.476;2023-11-21T08:02:53;2.23;;;2.13;;
69837;SDS011;57135;51.992;4.476;2023-11-21T08:05:21;2.22;;;2.13;;
69837;SDS011;57135;51.992;4.476;2023-11-21T08:11:27;3.00;;;2.88;;
69837;SDS011;57135;51.992;4.476;2023-11-21T08:17:21;3.08;;;2.99;;
69837;SDS011;57135;51.992;4.476;2023-11-21T08:19:46;3.08;;;2.99;;
69837;SDS011;57135;51.992;4.476;2023-11-21T08:29:00;2.97;;;2.93;;
69837;SDS011;57135;51.992;4.476;2023-11-21T08:31:26;3.27;;;3.22;;
69837;SDS011;57135;51.992;4.476;2023-11-21T08:33:51;3.14;;;3.04;;
69837;SDS011;57135;51.992;4.476;2023-11-21T08:36:20;2.79;;;2.72;;
69837;SDS011;57135;51.992;4.476;2023-11-21T08:38:49;3.28;;;3.14;;
69837;SDS011;57135;51.992;4.476;2023-11-21T08:41:17;3.48;;;3.36;;
69837;SDS011;57135;51.992;4.476;2023-11-21T08:44:01;3.32;;;3.22;;
69837;SDS011;57135;51.992;4.476;2023-11-21T08:47:08;3.07;;;3.00;;
69837;SDS011;57135;51.992;4.476;2023-11-21T08:49:34;3.18;;;3.08;;
69837;SDS011;57135;51.992;4.476;2023-11-21T08:52:27;2.93;;;2.84;;
69837;SDS011;57135;51.992;4.476;2023-11-21T08:54:56;3.28;;;3.18;;
69837;SDS011;57135;51.992;4.476;2023-11-21T08:57:22;3.10;;;3.05;;
69837;SDS011;57135;51.992;4.476;2023-11-21T08:59:50;3.21;;;3.16;;
69837;SDS011;57135;51.992;4.476;2023-11-21T09:02:35;3.15;;;3.09;;
69837;SDS011;57135;51.992;4.476;2023-11-21T09:05:14;2.89;;;2.83;;
69837;SDS011;57135;51.992;4.476;2023-11-21T09:11:14;3.22;;;3.11;;
69837;SDS011;57135;51.992;4.476;2023-11-21T09:21:23;2.71;;;2.70;;
69837;SDS011;57135;51.992;4.476;2023-11-21T09:23:49;3.18;;;3.16;;
69837;SDS011;57135;51.992;4.476;2023-11-21T09:26:44;3.13;;;3.12;;
69837;SDS011;57135;51.992;4.476;2023-11-21T09:32:32;3.65;;;3.62;;
69837;SDS011;57135;51.992;4.476;2023-11-21T09:35:01;3.69;;;3.66;;
69837;SDS011;57135;51.992;4.476;2023-11-21T09:37:46;3.83;;;3.78;;
69837;SDS011;57135;51.992;4.476;2023-11-21T09:40:11;4.17;;;4.06;;
69837;SDS011;57135;51.992;4.476;2023-11-21T09:42:57;4.03;;;4.00;;
69837;SDS011;57135;51.992;4.476;2023-11-21T09:45:27;4.09;;;4.06;;
69837;SDS011;57135;51.992;4.476;2023-11-21T09:47:55;4.21;;;4.16;;
69837;SDS011;57135;51.992;4.476;2023-11-21T09:50:21;4.58;;;4.53;;
69837;SDS011;57135;51.992;4.476;2023-11-21T09:52:58;4.53;;;4.47;;
69837;SDS011;57135;51.992;4.476;2023-11-21T09:55:44;4.68;;;4.65;;
69837;SDS011;57135;51.992;4.476;2023-11-21T09:58:15;4.72;;;4.68;;
69837;SDS011;57135;51.992;4.476;2023-11-21T10:00:42;4.97;;;4.91;;
69837;SDS011;57135;51.992;4.476;2023-11-21T10:03:10;5.07;;;5.03;;
69837;SDS011;57135;51.992;4.476;2023-11-21T10:05:37;5.48;;;5.41;;
69837;SDS011;57135;51.992;4.476;2023-11-21T10:08:12;5.47;;;5.39;;
69837;SDS011;57135;51.992;4.476;2023-11-21T10:11:19;5.46;;;5.43;;
69837;SDS011;57135;51.992;4.476;2023-11-21T10:17:44;6.20;;;6.14;;
69837;SDS011;57135;51.992;4.476;2023-11-21T10:20:12;6.23;;;6.14;;
69837;SDS011;57135;51.992;4.476;2023-11-21T10:22:42;6.39;;;6.32;;
69837;SDS011;57135;51.992;4.476;2023-11-21T10:25:09;6.12;;;6.04;;
69837;SDS011;57135;51.992;4.476;2023-11-21T10:37:40;5.91;;;5.90;;
69837;SDS011;57135;51.992;4.476;2023-11-21T10:40:09;6.06;;;6.03;;
69837;SDS011;57135;51.992;4.476;2023-11-21T10:45:57;6.27;;;6.21;;
69837;SDS011;57135;51.992;4.476;2023-11-21T10:48:24;6.50;;;6.35;;
69837;SDS011;57135;51.992;4.476;2023-11-21T10:51:06;5.98;;;5.85;;
69837;SDS011;57135;51.992;4.476;2023-11-21T10:53:32;5.94;;;5.88;;
69837;SDS011;57135;51.992;4.476;2023-11-21T10:56:02;6.49;;;6.40;;
69837;SDS011;57135;51.992;4.476;2023-11-21T10:58:32;5.94;;;5.85;;
69837;SDS011;57135;51.992;4.476;2023-11-21T11:00:58;6.19;;;6.04;;
69837;SDS011;57135;51.992;4.476;2023-11-21T11:03:25;6.33;;;6.22;;
69837;SDS011;57135;51.992;4.476;2023-11-21T11:05:51;5.80;;;5.70;;
69837;SDS011;57135;51.992;4.476;2023-11-21T11:08:19;6.12;;;5.99;;
69837;SDS011;57135;51.992;4.476;2023-11-21T11:10:51;5.81;;;5.71;;
69837;SDS011;57135;51.992;4.476;2023-11-21T11:13:17;6.28;;;6.21;;
69837;SDS011;57135;51.992;4.476;2023-11-21T11:15:45;6.49;;;6.38;;
69837;SDS011;57135;51.992;4.476;2023-11-21T11:18:12;6.48;;;6.35;;
69837;SDS011;57135;51.992;4.476;2023-11-21T11:20:38;6.27;;;6.11;;
69837;SDS011;57135;51.992;4.476;2023-11-21T11:28:54;6.69;;;6.51;;
69837;SDS011;57135;51.992;4.476;2023-11-21T11:34:30;7.00;;;6.76;;
69837;SDS011;57135;51.992;4.476;2023-11-21T11:37:02;7.07;;;6.81;;
69837;SDS011;57135;51.992;4.476;2023-11-21T11:39:37;7.60;;;7.26;;
69837;SDS011;57135;51.992;4.476;2023-11-21T11:47:28;7.58;;;7.31;;
69837;SDS011;57135;51.992;4.476;2023-11-21T11:50:22;8.35;;;8.15;;
69837;SDS011;57135;51.992;4.476;2023-11-21T11:59:13;7.72;;;7.58;;
69837;SDS011;57135;51.992;4.476;2023-11-21T12:01:39;7.93;;;7.73;;
69837;SDS011;57135;51.992;4.476;2023-11-21T12:04:29;8.38;;;8.21;;
69837;SDS011;57135;51.992;4.476;2023-11-21T12:07:02;8.41;;;8.31;;
69837;SDS011;57135;51.992;4.476;2023-11-21T12:09:28;8.37;;;8.34;;
69837;SDS011;57135;51.992;4.476;2023-11-21T12:11:56;9.26;;;9.21;;
69837;SDS011;57135;51.992;4.476;2023-11-21T12:14:22;9.04;;;8.98;;
69837;SDS011;57135;51.992;4.476;2023-11-21T12:16:48;8.80;;;8.74;;
69837;SDS011;57135;51.992;4.476;2023-11-21T12:19:14;9.06;;;8.96;;
69837;SDS011;57135;51.992;4.476;2023-11-21T12:21:40;8.68;;;8.54;;
69837;SDS011;57135;51.992;4.476;2023-11-21T12:24:14;8.47;;;8.42;;
69837;SDS011;57135;51.992;4.476;2023-11-21T12:26:44;8.00;;;7.90;;
69837;SDS011;57135;51.992;4.476;2023-11-21T12:29:09;8.11;;;7.96;;
69837;SDS011;57135;51.992;4.476;2023-11-21T12:31:35;7.85;;;7.77;;
69837;SDS011;57135;51.992;4.476;2023-11-21T12:34:01;7.87;;;7.72;;
69837;SDS011;57135;51.992;4.476;2023-11-21T12:36:32;7.55;;;7.48;;
69837;SDS011;57135;51.992;4.476;2023-11-21T12:38:59;6.96;;;6.89;;
69837;SDS011;57135;51.992;4.476;2023-11-21T12:41:25;6.37;;;6.35;;
69837;SDS011;57135;51.992;4.476;2023-11-21T12:43:51;7.13;;;7.08;;
69837;SDS011;57135;51.992;4.476;2023-11-21T12:46:16;6.88;;;6.83;;
69837;SDS011;57135;51.992;4.476;2023-11-21T12:48:42;6.14;;;6.13;;
69837;SDS011;57135;51.992;4.476;2023-11-21T12:51:20;6.42;;;6.40;;
69837;SDS011;57135;51.992;4.476;2023-11-21T12:53:53;6.63;;;6.60;;
69837;SDS011;57135;51.992;4.476;2023-11-21T12:56:27;6.58;;;6.57;;
69837;SDS011;57135;51.992;4.476;2023-11-21T12:58:53;6.39;;;6.34;;
69837;SDS011;57135;51.992;4.476;2023-11-21T13:01:24;6.57;;;6.55;;
69837;SDS011;57135;51.992;4.476;2023-11-21T13:03:54;6.19;;;6.17;;
69837;SDS011;57135;51.992;4.476;2023-11-21T13:06:32;6.11;;;6.05;;
69837;SDS011;57135;51.992;4.476;2023-11-21T13:09:10;6.60;;;6.55;;
69837;SDS011;57135;51.992;4.476;2023-11-21T13:12:01;6.82;;;6.73;;
69837;SDS011;57135;51.992;4.476;2023-11-21T13:14:31;6.65;;;6.60;;
69837;SDS011;57135;51.992;4.476;2023-11-21T13:16:57;7.16;;;7.07;;
69837;SDS011;57135;51.992;4.476;2023-11-21T13:19:23;6.98;;;6.92;;
69837;SDS011;57135;51.992;4.476;2023-11-21T13:21:49;6.84;;;6.79;;
69837;SDS011;57135;51.992;4.476;2023-11-21T13:24:15;6.96;;;6.90;;
69837;SDS011;57135;51.992;4.476;2023-11-21T13:26:43;6.77;;;6.72;;
69837;SDS011;57135;51.992;4.476;2023-11-21T13:29:13;6.75;;;6.68;;
69837;SDS011;57135;51.992;4.476;2023-11-21T13:31:41;6.51;;;6.44;;
69837;SDS011;57135;51.992;4.476;2023-11-21T13:34:12;5.84;;;5.74;;
69837;SDS011;57135;51.992;4.476;2023-11-21T13:45:44;5.79;;;5.77;;
69837;SDS011;57135;51.992;4.476;2023-11-21T13:48:11;5.93;;;5.87;;
69837;SDS011;57135;51.992;4.476;2023-11-21T13:50:48;6.09;;;6.02;;
69837;SDS011;57135;51.992;4.476;2023-11-21T13:53:28;6.67;;;6.56;;
69837;SDS011;57135;51.992;4.476;2023-11-21T13:59:32;6.82;;;6.78;;
69837;SDS011;57135;51.992;4.476;2023-11-21T14:09:07;6.73;;;6.59;;
69837;SDS011;57135;51.992;4.476;2023-11-21T14:11:33;6.96;;;6.86;;
69837;SDS011;57135;51.992;4.476;2023-11-21T14:20:19;5.01;;;4.93;;
69837;SDS011;57135;51.992;4.476;2023-11-21T14:39:11;8.25;;;7.94;;
69837;SDS011;57135;51.992;4.476;2023-11-21T14:47:34;10.71;;;10.26;;
69837;SDS011;57135;51.992;4.476;2023-11-21T14:50:02;10.87;;;10.45;;
69837;SDS011;57135;51.992;4.476;2023-11-21T15:02:24;10.19;;;9.88;;
69837;SDS011;57135;51.992;4.476;2023-11-21T15:05:14;10.06;;;9.84;;
69837;SDS011;57135;51.992;4.476;2023-11-21T15:07:46;9.66;;;9.51;;
69837;SDS011;57135;51.992;4.476;2023-11-21T15:15:51;10.16;;;9.99;;
69837;SDS011;57135;51.992;4.476;2023-11-21T15:20:54;9.96;;;9.85;;
69837;SDS011;57135;51.992;4.476;2023-11-21T15:23:37;9.47;;;9.42;;
69837;SDS011;57135;51.992;4.476;2023-11-21T15:26:13;9.71;;;9.63;;
69837;SDS011;57135;51.992;4.476;2023-11-21T15:28:54;9.22;;;9.10;;
69837;SDS011;57135;51.992;4.476;2023-11-21T15:34:26;8.74;;;8.50;;
69837;SDS011;57135;51.992;4.476;2023-11-21T15:36:55;8.38;;;8.18;;
69837;SDS011;57135;51.992;4.476;2023-11-21T15:39:26;8.09;;;7.89;;
69837;SDS011;57135;51.992;4.476;2023-11-21T15:42:46;7.98;;;7.79;;
69837;SDS011;57135;51.992;4.476;2023-11-21T15:48:37;7.85;;;7.73;;
69837;SDS011;57135;51.992;4.476;2023-11-21T15:51:22;7.76;;;7.68;;
69837;SDS011;57135;51.992;4.476;2023-11-21T15:54:00;8.40;;;8.26;;
69837;SDS011;57135;51.992;4.476;2023-11-21T15:59:48;8.31;;;8.17;;
69837;SDS011;57135;51.992;4.476;2023-11-21T16:02:13;8.45;;;8.33;;
69837;SDS011;57135;51.992;4.476;2023-11-21T16:04:41;8.91;;;8.82;;
69837;SDS011;57135;51.992;4.476;2023-11-21T16:07:08;8.51;;;8.44;;
69837;SDS011;57135;51.992;4.476;2023-11-21T16:09:38;8.84;;;8.66;;
69837;SDS011;57135;51.992;4.476;2023-11-21T16:15:17;9.28;;;9.13;;
69837;SDS011;57135;51.992;4.476;2023-11-21T16:17:43;9.59;;;9.36;;
69837;SDS011;57135;51.992;4.476;2023-11-21T16:26:24;9.57;;;9.44;;
69837;SDS011;57135;51.992;4.476;2023-11-21T16:28:50;8.85;;;8.72;;
69837;SDS011;57135;51.992;4.476;2023-11-21T16:31:26;8.95;;;8.90;;
69837;SDS011;57135;51.992;4.476;2023-11-21T16:36:30;9.87;;;9.75;;
69837;SDS011;57135;51.992;4.476;2023-11-21T16:38:59;9.57;;;9.50;;
69837;SDS011;57135;51.992;4.476;2023-11-21T16:41:26;10.11;;;10.00;;
69837;SDS011;57135;51.992;4.476;2023-11-21T16:43:51;10.35;;;10.21;;
69837;SDS011;57135;51.992;4.476;2023-11-21T16:48:52;10.27;;;10.16;;
69837;SDS011;57135;51.992;4.476;2023-11-21T16:51:19;9.65;;;9.50;;
69837;SDS011;57135;51.992;4.476;2023-11-21T16:53:47;9.63;;;9.51;;
69837;SDS011;57135;51.992;4.476;2023-11-21T16:56:13;9.74;;;9.68;;
69837;SDS011;57135;51.992;4.476;2023-11-21T16:58:40;9.30;;;9.22;;
69837;SDS011;57135;51.992;4.476;2023-11-21T17:01:06;9.89;;;9.83;;
69837;SDS011;57135;51.992;4.476;2023-11-21T17:03:34;10.21;;;10.14;;
69837;SDS011;57135;51.992;4.476;2023-11-21T17:06:06;10.64;;;10.57;;
69837;SDS011;57135;51.992;4.476;2023-11-21T17:08:33;9.87;;;9.80;;
69837;SDS011;57135;51.992;4.476;2023-11-21T17:11:18;10.70;;;10.58;;
69837;SDS011;57135;51.992;4.476;2023-11-21T17:14:22;11.03;;;10.91;;
69837;SDS011;57135;51.992;4.476;2023-11-21T17:45:18;9.45;;;9.28;;
69837;SDS011;57135;51.992;4.476;2023-11-21T18:16:14;9.02;;;8.89;;
69837;SDS011;57135;51.992;4.476;2023-11-21T18:18:40;8.81;;;8.75;;
69837;SDS011;57135;51.992;4.476;2023-11-21T18:21:07;8.39;;;8.36;;
69837;SDS011;57135;51.992;4.476;2023-11-21T18:37:20;8.42;;;8.30;;
69837;SDS011;57135;51.992;4.476;2023-11-21T18:42:24;8.93;;;8.82;;
69837;SDS011;57135;51.992;4.476;2023-11-21T18:44:55;8.97;;;8.84;;
69837;SDS011;57135;51.992;4.476;2023-11-21T18:53:20;8.64;;;8.59;;
69837;SDS011;57135;51.992;4.476;2023-11-21T18:55:46;8.98;;;8.87;;
69837;SDS011;57135;51.992;4.476;2023-11-21T18:58:12;8.93;;;8.82;;
69837;SDS011;57135;51.992;4.476;2023-11-21T19:00:38;9.02;;;8.92;;
69837;SDS011;57135;51.992;4.476;2023-11-21T19:03:04;9.28;;;9.21;;
69837;SDS011;57135;51.992;4.476;2023-11-21T19:05:30;9.27;;;9.15;;
69837;SDS011;57135;51.992;4.476;2023-11-21T19:07:56;8.74;;;8.60;;
69837;SDS011;57135;51.992;4.476;2023-11-21T19:10:22;8.99;;;8.86;;
69837;SDS011;57135;51.992;4.476;2023-11-21T19:12:52;8.53;;;8.43;;
69837;SDS011;57135;51.992;4.476;2023-11-21T19:15:24;8.49;;;8.45;;
69837;SDS011;57135;51.992;4.476;2023-11-21T19:21:41;8.36;;;8.29;;
69837;SDS011;57135;51.992;4.476;2023-11-21T19:24:06;9.02;;;8.94;;
69837;SDS011;57135;51.992;4.476;2023-11-21T19:26:32;8.48;;;8.43;;
69837;SDS011;57135;51.992;4.476;2023-11-21T19:28:58;9.09;;;9.03;;
69837;SDS011;57135;51.992;4.476;2023-11-21T19:34:45;10.08;;;9.94;;
69837;SDS011;57135;51.992;4.476;2023-11-21T20:01:09;11.09;;;10.89;;
69837;SDS011;57135;51.992;4.476;2023-11-21T20:03:35;11.48;;;11.25;;
69837;SDS011;57135;51.992;4.476;2023-11-21T20:06:01;11.78;;;11.48;;
69837;SDS011;57135;51.992;4.476;2023-11-21T20:17:23;11.60;;;11.43;;
69837;SDS011;57135;51.992;4.476;2023-11-21T20:19:49;11.59;;;11.43;;
69837;SDS011;57135;51.992;4.476;2023-11-21T20:22:14;11.46;;;11.28;;
69837;SDS011;57135;51.992;4.476;2023-11-21T20:24:42;12.00;;;11.69;;
69837;SDS011;57135;51.992;4.476;2023-11-21T20:27:09;11.85;;;11.53;;
69837;SDS011;57135;51.992;4.476;2023-11-21T20:38:03;12.90;;;12.71;;
69837;SDS011;57135;51.992;4.476;2023-11-21T20:47:03;11.45;;;11.25;;
69837;SDS011;57135;51.992;4.476;2023-11-21T20:49:37;11.81;;;11.67;;
69837;SDS011;57135;51.992;4.476;2023-11-21T20:52:03;11.87;;;11.72;;
69837;SDS011;57135;51.992;4.476;2023-11-21T20:54:35;11.68;;;11.43;;
69837;SDS011;57135;51.992;4.476;2023-11-21T20:57:01;11.76;;;11.64;;
69837;SDS011;57135;51.992;4.476;2023-11-21T20:59:27;11.82;;;11.65;;
